Time,TemperatureF,DewpointF,PressureIn,WindDirection,WindDirectionDegrees,WindSpeedMPH,WindSpeedGustMPH,Humidity,HourlyPrecipIn,Conditions,Clouds,dailyrainin,SoftwareType,DateUTC
2013-01-03 00:02:00,31.7,25.9,30.25,WNW,293,1.3,2.5,79,0.00,,,0.00,WUHU216HW,2013-01-03 06:02:00,
2013-01-03 00:07:00,31.5,25.7,30.25,NW,315,0.0,2.5,79,0.00,,,0.00,WUHU216HW,2013-01-03 06:07:00,
2013-01-03 00:12:00,31.5,25.7,30.25,NW,315,1.1,1.8,79,0.00,,,0.00,WUHU216HW,2013-01-03 06:12:00,
2013-01-03 00:17:00,31.5,25.7,30.25,WNW,293,0.9,1.3,79,0.00,,,0.00,WUHU216HW,2013-01-03 06:17:00,
2013-01-03 00:22:00,31.7,25.9,30.25,NW,315,0.0,1.3,79,0.00,,,0.00,WUHU216HW,2013-01-03 06:22:00,
2013-01-03 00:27:00,31.5,25.7,30.26,ESE,113,0.0,1.1,79,0.00,,,0.00,WUHU216HW,2013-01-03 06:27:00,
2013-01-03 00:32:00,31.3,25.3,30.25,SE,135,1.1,1.6,78,0.00,,,0.00,WUHU216HW,2013-01-03 06:32:00,
2013-01-03 00:37:00,30.8,25.0,30.25,SSE,158,2.5,2.5,79,0.00,,,0.00,WUHU216HW,2013-01-03 06:37:00,
2013-01-03 00:42:00,29.9,24.1,30.25,South,180,1.8,2.5,79,0.00,,,0.00,WUHU216HW,2013-01-03 06:42:00,
2013-01-03 00:47:00,29.2,23.5,30.25,South,180,1.1,2.5,79,0.00,,,0.00,WUHU216HW,2013-01-03 06:47:00,
2013-01-03 00:52:00,29.0,23.6,30.25,SW,225,0.0,2.5,80,0.00,,,0.00,WUHU216HW,2013-01-03 06:52:00,
2013-01-03 00:57:00,29.2,24.0,30.25,South,180,0.4,1.8,81,0.00,,,0.00,WUHU216HW,2013-01-03 06:57:00,
2013-01-03 01:02:00,29.3,24.2,30.26,SSW,203,1.1,1.3,81,0.00,,,0.00,WUHU216HW,2013-01-03 07:02:00,
2013-01-03 01:07:00,29.3,24.5,30.26,SSW,203,1.6,2.0,82,0.00,,,0.00,WUHU216HW,2013-01-03 07:07:00,
2013-01-03 01:12:00,29.3,24.9,30.26,SSW,203,1.3,2.2,83,0.00,,,0.00,WUHU216HW,2013-01-03 07:12:00,
2013-01-03 01:17:00,29.2,24.7,30.26,SW,225,1.8,2.2,83,0.00,,,0.00,WUHU216HW,2013-01-03 07:17:00,
2013-01-03 01:22:00,29.2,24.7,30.26,SW,225,1.6,1.8,83,0.00,,,0.00,WUHU216HW,2013-01-03 07:22:00,
2013-01-03 01:27:00,29.2,24.7,30.26,SW,225,0.7,1.8,83,0.00,,,0.00,WUHU216HW,2013-01-03 07:27:00,
2013-01-03 01:32:00,29.3,24.9,30.26,SW,225,1.1,1.8,83,0.00,,,0.00,WUHU216HW,2013-01-03 07:32:00,
2013-01-03 01:37:00,29.5,25.0,30.25,WSW,248,0.4,1.3,83,0.00,,,0.00,WUHU216HW,2013-01-03 07:37:00,
2013-01-03 01:42:00,29.7,25.2,30.25,WSW,248,1.1,1.3,83,0.00,,,0.00,WUHU216HW,2013-01-03 07:42:00,
2013-01-03 01:47:00,29.5,25.3,30.25,West,270,1.1,1.6,84,0.00,,,0.00,WUHU216HW,2013-01-03 07:47:00,
2013-01-03 01:52:00,29.7,25.5,30.25,WSW,248,2.5,2.5,84,0.00,,,0.00,WUHU216HW,2013-01-03 07:52:00,
2013-01-03 01:57:00,29.9,25.7,30.25,West,270,2.5,2.5,84,0.00,,,0.00,WUHU216HW,2013-01-03 07:57:00,
2013-01-03 02:02:00,29.9,25.7,30.25,WSW,248,2.0,2.5,84,0.00,,,0.00,WUHU216HW,2013-01-03 08:02:00,
2013-01-03 02:07:00,29.9,25.7,30.26,West,270,2.2,2.5,84,0.00,,,0.00,WUHU216HW,2013-01-03 08:07:00,
2013-01-03 02:12:00,29.9,25.7,30.26,SW,225,1.1,2.2,84,0.00,,,0.00,WUHU216HW,2013-01-03 08:12:00,
2013-01-03 02:17:00,29.7,25.2,30.26,SW,225,1.8,2.2,83,0.00,,,0.00,WUHU216HW,2013-01-03 08:17:00,
2013-01-03 02:22:00,29.7,25.2,30.26,SW,225,1.6,2.0,83,0.00,,,0.00,WUHU216HW,2013-01-03 08:22:00,
2013-01-03 02:27:00,29.5,25.0,30.26,SW,225,1.3,1.8,83,0.00,,,0.00,WUHU216HW,2013-01-03 08:27:00,
2013-01-03 02:32:00,29.7,25.2,30.27,SW,225,0.7,1.8,83,0.00,,,0.00,WUHU216HW,2013-01-03 08:32:00,
2013-01-03 02:37:00,29.5,25.0,30.27,SW,225,0.9,1.3,83,0.00,,,0.00,WUHU216HW,2013-01-03 08:37:00,
2013-01-03 02:42:00,29.5,25.0,30.27,SW,225,1.1,1.8,83,0.00,,,0.00,WUHU216HW,2013-01-03 08:42:00,
2013-01-03 02:47:00,29.5,25.3,30.27,SSW,203,0.0,1.8,84,0.00,,,0.00,WUHU216HW,2013-01-03 08:47:00,
2013-01-03 02:52:00,29.5,25.3,30.27,WSW,248,0.2,2.2,84,0.00,,,0.00,WUHU216HW,2013-01-03 08:52:00,
2013-01-03 02:57:00,29.5,25.0,30.26,WSW,248,1.1,2.2,83,0.00,,,0.00,WUHU216HW,2013-01-03 08:57:00,
2013-01-03 03:02:00,29.7,25.5,30.27,WSW,248,2.2,2.2,84,0.00,,,0.00,WUHU216HW,2013-01-03 09:02:00,
2013-01-03 03:07:00,29.7,25.5,30.27,WSW,248,1.1,2.2,84,0.00,,,0.00,WUHU216HW,2013-01-03 09:07:00,
2013-01-03 03:12:00,29.7,25.5,30.27,West,270,2.5,2.9,84,0.00,,,0.00,WUHU216HW,2013-01-03 09:12:00,
2013-01-03 03:17:00,29.5,25.0,30.27,West,270,1.8,3.1,83,0.00,,,0.00,WUHU216HW,2013-01-03 09:17:00,
2013-01-03 03:22:00,29.5,25.0,30.27,West,270,1.1,3.1,83,0.00,,,0.00,WUHU216HW,2013-01-03 09:22:00,
2013-01-03 03:27:00,29.5,25.0,30.27,WSW,248,1.8,2.0,83,0.00,,,0.00,WUHU216HW,2013-01-03 09:27:00,
2013-01-03 03:32:00,29.5,25.3,30.28,West,270,2.0,2.5,84,0.00,,,0.00,WUHU216HW,2013-01-03 09:32:00,
2013-01-03 03:37:00,29.5,25.3,30.28,West,270,1.8,2.5,84,0.00,,,0.00,WUHU216HW,2013-01-03 09:37:00,
2013-01-03 03:42:00,29.5,25.0,30.28,WSW,248,0.4,2.0,83,0.00,,,0.00,WUHU216HW,2013-01-03 09:42:00,
2013-01-03 03:47:00,29.7,25.2,30.28,WSW,248,0.0,1.8,83,0.00,,,0.00,WUHU216HW,2013-01-03 09:47:00,
2013-01-03 03:52:00,29.7,25.2,30.28,SSW,203,0.0,1.1,83,0.00,,,0.00,WUHU216HW,2013-01-03 09:52:00,
2013-01-03 03:57:00,29.9,25.4,30.28,SW,225,0.0,1.1,83,0.00,,,0.00,WUHU216HW,2013-01-03 09:57:00,
2013-01-03 04:02:00,29.9,25.4,30.28,WSW,248,0.0,0.0,83,0.00,,,0.00,WUHU216HW,2013-01-03 10:02:00,
2013-01-03 04:07:00,29.9,25.4,30.28,WSW,248,0.0,0.7,83,0.00,,,0.00,WUHU216HW,2013-01-03 10:07:00,
2013-01-03 04:12:00,30.1,25.6,30.28,West,270,0.0,0.7,83,0.00,,,0.00,WUHU216HW,2013-01-03 10:12:00,
2013-01-03 04:17:00,30.1,25.6,30.28,West,270,0.0,0.0,83,0.00,,,0.00,WUHU216HW,2013-01-03 10:17:00,
2013-01-03 04:22:00,30.2,25.8,30.28,West,270,0.9,1.1,83,0.00,,,0.00,WUHU216HW,2013-01-03 10:22:00,
2013-01-03 04:27:00,30.2,25.8,30.28,West,270,1.8,1.8,83,0.00,,,0.00,WUHU216HW,2013-01-03 10:27:00,
2013-01-03 04:32:00,30.2,25.8,30.28,West,270,2.2,2.7,83,0.00,,,0.00,WUHU216HW,2013-01-03 10:32:00,
2013-01-03 04:37:00,30.1,25.6,30.28,West,270,1.8,2.7,83,0.00,,,0.00,WUHU216HW,2013-01-03 10:37:00,
2013-01-03 04:42:00,29.9,25.4,30.29,West,270,1.3,2.2,83,0.00,,,0.00,WUHU216HW,2013-01-03 10:42:00,
2013-01-03 04:47:00,29.9,25.4,30.29,WSW,248,0.9,1.8,83,0.00,,,0.00,WUHU216HW,2013-01-03 10:47:00,
2013-01-03 04:52:00,29.9,25.4,30.28,WSW,248,0.4,1.3,83,0.00,,,0.00,WUHU216HW,2013-01-03 10:52:00,
2013-01-03 04:57:00,30.1,25.6,30.29,WSW,248,1.8,1.8,83,0.00,,,0.00,WUHU216HW,2013-01-03 10:57:00,
2013-01-03 05:02:00,29.9,25.4,30.28,West,270,1.3,2.0,83,0.00,,,0.00,WUHU216HW,2013-01-03 11:02:00,
2013-01-03 05:07:00,29.7,24.8,30.28,NW,315,0.7,2.0,82,0.00,,,0.00,WUHU216HW,2013-01-03 11:07:00,
2013-01-03 05:12:00,29.2,24.3,30.29,WNW,293,1.3,1.3,82,0.00,,,0.00,WUHU216HW,2013-01-03 11:12:00,
2013-01-03 05:17:00,29.0,24.5,30.29,WNW,293,1.8,2.2,83,0.00,,,0.00,WUHU216HW,2013-01-03 11:17:00,
2013-01-03 05:22:00,29.0,24.5,30.29,WNW,293,1.6,2.2,83,0.00,,,0.00,WUHU216HW,2013-01-03 11:22:00,
2013-01-03 05:27:00,29.2,24.7,30.29,WNW,293,0.9,2.0,83,0.00,,,0.00,WUHU216HW,2013-01-03 11:27:00,
2013-01-03 05:32:00,29.2,24.7,30.29,WNW,293,1.3,1.6,83,0.00,,,0.00,WUHU216HW,2013-01-03 11:32:00,
2013-01-03 05:37:00,29.2,24.7,30.29,NW,315,1.1,2.0,83,0.00,,,0.00,WUHU216HW,2013-01-03 11:37:00,
2013-01-03 05:42:00,29.0,24.5,30.29,NW,315,1.3,2.0,83,0.00,,,0.00,WUHU216HW,2013-01-03 11:42:00,
2013-01-03 05:47:00,28.8,24.3,30.29,NNW,338,1.1,1.8,83,0.00,,,0.00,WUHU216HW,2013-01-03 11:47:00,
2013-01-03 05:52:00,29.0,24.8,30.29,NNW,338,1.1,1.8,84,0.00,,,0.00,WUHU216HW,2013-01-03 11:52:00,
2013-01-03 05:57:00,29.0,24.8,30.30,NNW,338,1.6,2.0,84,0.00,,,0.00,WUHU216HW,2013-01-03 11:57:00,
2013-01-03 06:02:00,29.0,24.8,30.30,NNW,338,1.8,2.5,84,0.00,,,0.00,WUHU216HW,2013-01-03 12:02:00,
2013-01-03 06:07:00,29.2,25.2,30.30,NNW,338,2.5,2.9,85,0.00,,,0.00,WUHU216HW,2013-01-03 12:07:00,
2013-01-03 06:12:00,29.2,25.2,30.30,NW,315,1.8,2.9,85,0.00,,,0.00,WUHU216HW,2013-01-03 12:12:00,
2013-01-03 06:17:00,29.2,25.2,30.31,NNW,338,1.3,2.5,85,0.00,,,0.00,WUHU216HW,2013-01-03 12:17:00,
2013-01-03 06:22:00,29.2,25.2,30.31,NNW,338,1.8,2.5,85,0.00,,,0.00,WUHU216HW,2013-01-03 12:22:00,
2013-01-03 06:27:00,29.3,25.4,30.31,North,0,1.6,3.1,85,0.00,,,0.00,WUHU216HW,2013-01-03 12:27:00,
2013-01-03 06:32:00,29.3,25.1,30.31,NNW,338,1.6,3.1,84,0.00,,,0.00,WUHU216HW,2013-01-03 12:32:00,
2013-01-03 06:37:00,29.5,25.3,30.31,NNW,338,1.8,2.5,84,0.00,,,0.00,WUHU216HW,2013-01-03 12:37:00,
2013-01-03 06:42:00,29.5,25.3,30.32,NNW,338,2.2,2.5,84,0.00,,,0.00,WUHU216HW,2013-01-03 12:42:00,
2013-01-03 06:47:00,29.5,25.3,30.32,NW,315,1.8,2.7,84,0.00,,,0.00,WUHU216HW,2013-01-03 12:47:00,
2013-01-03 06:52:00,29.5,25.3,30.32,NNW,338,1.1,3.1,84,0.00,,,0.00,WUHU216HW,2013-01-03 12:52:00,
2013-01-03 06:57:00,29.5,25.3,30.32,NNW,338,0.7,3.1,84,0.00,,,0.00,WUHU216HW,2013-01-03 12:57:00,
2013-01-03 07:02:00,29.5,25.3,30.33,NNW,338,1.1,2.5,84,0.00,,,0.00,WUHU216HW,2013-01-03 13:02:00,
2013-01-03 07:07:00,29.5,25.3,30.33,NW,315,1.6,2.5,84,0.00,,,0.00,WUHU216HW,2013-01-03 13:07:00,
2013-01-03 07:12:00,29.5,25.3,30.33,NW,315,2.5,3.1,84,0.00,,,0.00,WUHU216HW,2013-01-03 13:12:00,
2013-01-03 07:17:00,29.5,25.3,30.34,North,0,1.1,3.1,84,0.00,,,0.00,WUHU216HW,2013-01-03 13:17:00,
2013-01-03 07:22:00,29.7,25.5,30.34,North,0,2.5,3.1,84,0.00,,,0.00,WUHU216HW,2013-01-03 13:22:00,
2013-01-03 07:27:00,29.9,25.7,30.34,NW,315,1.8,3.1,84,0.00,,,0.00,WUHU216HW,2013-01-03 13:27:00,
2013-01-03 07:32:00,29.9,25.7,30.34,NW,315,2.5,3.4,84,0.00,,,0.00,WUHU216HW,2013-01-03 13:32:00,
2013-01-03 07:37:00,29.9,25.7,30.34,North,0,2.0,3.4,84,0.00,,,0.00,WUHU216HW,2013-01-03 13:37:00,
2013-01-03 07:42:00,30.2,26.0,30.35,NW,315,1.6,3.4,84,0.00,,,0.00,WUHU216HW,2013-01-03 13:42:00,
2013-01-03 07:47:00,30.6,26.4,30.35,NNW,338,2.5,3.6,84,0.00,,,0.00,WUHU216HW,2013-01-03 13:47:00,
2013-01-03 07:52:00,30.8,26.6,30.35,North,0,2.7,3.6,84,0.00,,,0.00,WUHU216HW,2013-01-03 13:52:00,
2013-01-03 07:57:00,31.0,26.7,30.35,NNW,338,4.3,4.3,84,0.00,,,0.00,WUHU216HW,2013-01-03 13:57:00,
2013-01-03 08:02:00,31.3,27.1,30.35,NW,315,2.5,4.7,84,0.00,,,0.00,WUHU216HW,2013-01-03 14:02:00,
2013-01-03 08:07:00,31.7,27.2,30.36,NW,315,3.8,4.7,83,0.00,,,0.00,WUHU216HW,2013-01-03 14:07:00,
2013-01-03 08:12:00,32.0,27.6,30.36,NNW,338,4.5,4.5,83,0.00,,,0.00,WUHU216HW,2013-01-03 14:12:00,
2013-01-03 08:17:00,32.4,27.8,30.36,NNW,338,5.4,6.3,83,0.00,,,0.00,WUHU216HW,2013-01-03 14:17:00,
2013-01-03 08:22:00,32.8,28.2,30.36,North,0,2.2,6.7,83,0.00,,,0.00,WUHU216HW,2013-01-03 14:22:00,
2013-01-03 08:27:00,33.3,28.4,30.37,NW,315,3.8,6.7,82,0.00,,,0.00,WUHU216HW,2013-01-03 14:27:00,
2013-01-03 08:32:00,33.7,28.7,30.37,NNW,338,4.7,6.5,82,0.00,,,0.00,WUHU216HW,2013-01-03 14:32:00,
2013-01-03 08:37:00,33.8,28.5,30.37,North,0,3.4,5.6,81,0.00,,,0.00,WUHU216HW,2013-01-03 14:37:00,
2013-01-03 08:42:00,34.2,29.2,30.37,NW,315,4.7,6.0,82,0.00,,,0.00,WUHU216HW,2013-01-03 14:42:00,
2013-01-03 08:47:00,34.6,29.5,30.37,NNW,338,3.4,6.3,82,0.00,,,0.00,WUHU216HW,2013-01-03 14:47:00,
2013-01-03 08:52:00,35.1,30.1,30.37,North,0,3.4,6.3,82,0.00,,,0.00,WUHU216HW,2013-01-03 14:52:00,
2013-01-03 08:57:00,35.8,30.5,30.38,NNW,338,3.1,6.0,81,0.00,,,0.00,WUHU216HW,2013-01-03 14:57:00,
2013-01-03 09:02:00,36.4,30.8,30.37,North,0,4.0,5.4,80,0.00,,,0.00,WUHU216HW,2013-01-03 15:02:00,
2013-01-03 09:07:00,36.9,31.3,30.37,NNE,23,4.5,6.9,80,0.00,,,0.00,WUHU216HW,2013-01-03 15:07:00,
2013-01-03 09:12:00,37.1,31.1,30.37,NW,315,3.1,6.9,79,0.00,,,0.00,WUHU216HW,2013-01-03 15:12:00,
2013-01-03 09:17:00,37.3,31.1,30.38,North,0,4.0,6.5,78,0.00,,,0.00,WUHU216HW,2013-01-03 15:17:00,
2013-01-03 09:22:00,37.4,31.2,30.37,North,0,6.9,7.6,78,0.00,,,0.00,WUHU216HW,2013-01-03 15:22:00,
2013-01-03 09:27:00,37.6,31.4,30.38,NNW,338,6.3,7.6,78,0.00,,,0.00,WUHU216HW,2013-01-03 15:27:00,
2013-01-03 09:32:00,38.2,31.6,30.38,NNE,23,5.8,7.8,77,0.00,,,0.00,WUHU216HW,2013-01-03 15:32:00,
2013-01-03 09:37:00,38.5,32.3,30.38,NNE,23,3.6,7.8,78,0.00,,,0.00,WUHU216HW,2013-01-03 15:37:00,
2013-01-03 09:42:00,39.4,33.1,30.38,NNW,338,4.0,6.9,78,0.00,,,0.00,WUHU216HW,2013-01-03 15:42:00,
2013-01-03 09:47:00,40.0,33.3,30.38,NNW,338,4.0,10.5,77,0.00,,,0.00,WUHU216HW,2013-01-03 15:47:00,
2013-01-03 09:52:00,40.3,32.9,30.38,NNE,23,4.0,10.5,75,0.00,,,0.00,WUHU216HW,2013-01-03 15:52:00,
2013-01-03 09:57:00,40.7,33.3,30.38,North,0,5.6,8.3,75,0.00,,,0.00,WUHU216HW,2013-01-03 15:57:00,
2013-01-03 10:02:00,40.7,33.0,30.39,North,0,3.8,7.8,74,0.00,,,0.00,WUHU216HW,2013-01-03 16:02:00,
2013-01-03 10:07:00,41.2,33.2,30.39,NNE,23,5.4,9.6,73,0.00,,,0.00,WUHU216HW,2013-01-03 16:07:00,
2013-01-03 10:12:00,41.4,33.0,30.38,North,0,7.2,9.6,72,0.00,,,0.00,WUHU216HW,2013-01-03 16:12:00,
2013-01-03 10:17:00,41.8,33.1,30.38,NNE,23,5.4,7.8,71,0.00,,,0.00,WUHU216HW,2013-01-03 16:17:00,
2013-01-03 10:22:00,42.5,33.9,30.38,North,0,6.5,7.8,71,0.00,,,0.00,WUHU216HW,2013-01-03 16:22:00,
2013-01-03 10:27:00,43.4,34.7,30.38,West,270,2.5,9.2,71,0.00,,,0.00,WUHU216HW,2013-01-03 16:27:00,
2013-01-03 10:32:00,43.6,33.8,30.38,NE,45,9.4,13.4,68,0.00,,,0.00,WUHU216HW,2013-01-03 16:32:00,
2013-01-03 10:37:00,43.6,33.8,30.38,NE,45,11.0,13.4,68,0.00,,,0.00,WUHU216HW,2013-01-03 16:37:00,
2013-01-03 10:42:00,43.7,33.1,30.38,NE,45,8.5,13.2,66,0.00,,,0.00,WUHU216HW,2013-01-03 16:42:00,
2013-01-03 10:47:00,44.1,33.5,30.38,North,0,7.6,13.2,66,0.00,,,0.00,WUHU216HW,2013-01-03 16:47:00,
2013-01-03 10:52:00,44.6,33.2,30.38,NNE,23,6.3,12.3,64,0.00,,,0.00,WUHU216HW,2013-01-03 16:52:00,
2013-01-03 10:57:00,45.0,33.1,30.38,NNE,23,6.9,12.3,63,0.00,,,0.00,WUHU216HW,2013-01-03 16:57:00,
2013-01-03 11:02:00,45.4,33.1,30.38,NE,45,9.6,12.5,62,0.00,,,0.00,WUHU216HW,2013-01-03 17:02:00,
2013-01-03 11:07:00,45.7,33.9,30.38,NE,45,9.2,12.5,63,0.00,,,0.00,WUHU216HW,2013-01-03 17:07:00,
2013-01-03 11:12:00,46.1,33.4,30.38,NE,45,5.4,14.1,61,0.00,,,0.00,WUHU216HW,2013-01-03 17:12:00,
2013-01-03 11:17:00,46.4,33.7,30.37,NE,45,7.8,14.1,61,0.00,,,0.00,WUHU216HW,2013-01-03 17:17:00,
2013-01-03 11:22:00,46.8,33.2,30.37,NNE,23,8.5,10.5,59,0.00,,,0.00,WUHU216HW,2013-01-03 17:22:00,
2013-01-03 11:27:00,46.6,32.1,30.37,ENE,68,10.5,12.8,57,0.00,,,0.00,WUHU216HW,2013-01-03 17:27:00,
2013-01-03 11:32:00,46.8,32.3,30.36,NE,45,9.4,12.8,57,0.00,,,0.00,WUHU216HW,2013-01-03 17:32:00,
2013-01-03 11:37:00,47.2,32.7,30.36,NE,45,6.9,12.5,57,0.00,,,0.00,WUHU216HW,2013-01-03 17:37:00,
2013-01-03 11:42:00,47.3,32.4,30.36,NE,45,9.4,12.1,56,0.00,,,0.00,WUHU216HW,2013-01-03 17:42:00,
2013-01-03 11:47:00,47.9,32.4,30.36,NNE,23,3.4,12.1,55,0.00,,,0.00,WUHU216HW,2013-01-03 17:47:00,
2013-01-03 11:52:00,48.4,32.1,30.36,NE,45,11.6,12.8,53,0.00,,,0.00,WUHU216HW,2013-01-03 17:52:00,
2013-01-03 11:57:00,48.4,32.5,30.36,NE,45,8.1,12.8,54,0.00,,,0.00,WUHU216HW,2013-01-03 17:57:00,
2013-01-03 12:02:00,49.0,32.0,30.36,ENE,68,6.5,11.9,52,0.00,,,0.00,WUHU216HW,2013-01-03 18:02:00,
2013-01-03 12:07:00,49.3,31.0,30.35,NE,45,9.4,10.5,49,0.00,,,0.00,WUHU216HW,2013-01-03 18:07:00,
2013-01-03 12:12:00,50.0,32.7,30.35,NE,45,7.2,10.5,51,0.00,,,0.00,WUHU216HW,2013-01-03 18:12:00,
2013-01-03 12:17:00,50.8,32.9,30.35,NE,45,8.1,9.4,50,0.00,,,0.00,WUHU216HW,2013-01-03 18:17:00,
2013-01-03 12:22:00,50.9,33.0,30.34,NW,315,4.0,9.2,50,0.00,,,0.00,WUHU216HW,2013-01-03 18:22:00,
2013-01-03 12:27:00,50.8,31.2,30.33,NE,45,7.6,12.3,47,0.00,,,0.00,WUHU216HW,2013-01-03 18:27:00,
2013-01-03 12:32:00,50.8,32.3,30.33,NNE,23,7.6,12.3,49,0.00,,,0.00,WUHU216HW,2013-01-03 18:32:00,
2013-01-03 12:37:00,51.5,32.4,30.33,North,0,4.3,10.5,48,0.00,,,0.00,WUHU216HW,2013-01-03 18:37:00,
2013-01-03 12:42:00,52.0,32.3,30.33,NE,45,5.6,10.7,47,0.00,,,0.00,WUHU216HW,2013-01-03 18:42:00,
2013-01-03 12:47:00,52.2,33.0,30.32,North,0,4.3,10.7,48,0.00,,,0.00,WUHU216HW,2013-01-03 18:47:00,
2013-01-03 12:52:00,52.4,32.7,30.32,NNW,338,9.2,9.2,47,0.00,,,0.00,WUHU216HW,2013-01-03 18:52:00,
2013-01-03 12:57:00,52.6,32.2,30.31,NNW,338,5.8,9.8,46,0.00,,,0.00,WUHU216HW,2013-01-03 18:57:00,
2013-01-03 13:02:00,52.7,32.4,30.30,NE,45,6.9,11.9,46,0.00,,,0.00,WUHU216HW,2013-01-03 19:02:00,
2013-01-03 13:07:00,52.7,32.4,30.30,ENE,68,7.6,13.0,46,0.00,,,0.00,WUHU216HW,2013-01-03 19:07:00,
2013-01-03 13:12:00,52.7,32.4,30.30,NNE,23,5.4,13.0,46,0.00,,,0.00,WUHU216HW,2013-01-03 19:12:00,
2013-01-03 13:17:00,53.1,32.8,30.31,NE,45,8.3,13.0,46,0.00,,,0.00,WUHU216HW,2013-01-03 19:17:00,
2013-01-03 13:55:00,53.1,32.8,30.32,NE,45,4.0,12.1,46,0.00,,,0.00,WUHU216HW,2013-01-03 19:55:00,
2013-01-03 14:00:00,54.4,33.3,30.33,NE,45,6.3,8.7,45,0.00,,,0.00,WUHU216HW,2013-01-03 20:00:00,
2013-01-03 14:05:00,54.9,33.2,30.33,North,0,2.5,7.8,44,0.00,,,0.00,WUHU216HW,2013-01-03 20:05:00,
2013-01-03 14:10:00,55.1,32.3,30.33,NNE,23,4.0,8.5,42,0.00,,,0.00,WUHU216HW,2013-01-03 20:10:00,
2013-01-03 14:15:00,55.1,32.9,30.32,NNE,23,4.7,8.5,43,0.00,,,0.00,WUHU216HW,2013-01-03 20:15:00,
2013-01-03 14:20:00,54.7,32.0,30.32,NE,45,6.5,12.1,42,0.00,,,0.00,WUHU216HW,2013-01-03 20:20:00,
2013-01-03 14:25:00,54.7,32.0,30.31,NE,45,8.9,12.1,42,0.00,,,0.00,WUHU216HW,2013-01-03 20:25:00,
2013-01-03 14:30:00,54.7,32.5,30.32,ENE,68,2.5,10.3,43,0.00,,,0.00,WUHU216HW,2013-01-03 20:30:00,
2013-01-03 14:35:00,55.1,31.1,30.31,NE,45,6.0,10.3,40,0.00,,,0.00,WUHU216HW,2013-01-03 20:35:00,
2013-01-03 14:40:00,54.4,30.5,30.32,ENE,68,6.9,10.3,40,0.00,,,0.00,WUHU216HW,2013-01-03 20:40:00,
2013-01-03 14:45:00,52.7,30.8,30.32,North,0,1.8,9.4,43,0.00,,,0.00,WUHU216HW,2013-01-03 20:45:00,
2013-01-03 14:50:00,54.0,31.9,30.33,NE,45,6.9,9.2,43,0.00,,,0.00,WUHU216HW,2013-01-03 20:50:00,
2013-01-03 14:55:00,54.5,31.8,30.33,NNW,338,3.1,9.2,42,0.00,,,0.00,WUHU216HW,2013-01-03 20:55:00,
2013-01-03 15:00:00,55.4,32.6,30.33,NNW,338,4.7,8.1,42,0.00,,,0.00,WUHU216HW,2013-01-03 21:00:00,
2013-01-03 15:05:00,55.8,31.9,30.33,NE,45,3.6,8.3,40,0.00,,,0.00,WUHU216HW,2013-01-03 21:05:00,
2013-01-03 15:10:00,55.8,31.9,30.32,NE,45,5.4,8.3,40,0.00,,,0.00,WUHU216HW,2013-01-03 21:10:00,
2013-01-03 15:15:00,55.3,31.9,30.32,North,0,3.4,8.1,41,0.00,,,0.00,WUHU216HW,2013-01-03 21:15:00,
2013-01-03 15:20:00,55.4,31.5,30.33,NNE,23,4.7,8.5,40,0.00,,,0.00,WUHU216HW,2013-01-03 21:20:00,
2013-01-03 15:25:00,55.1,31.1,30.32,NE,45,6.9,8.5,40,0.00,,,0.00,WUHU216HW,2013-01-03 21:25:00,
2013-01-03 15:30:00,53.6,31.0,30.32,North,0,4.7,7.2,42,0.00,,,0.00,WUHU216HW,2013-01-03 21:30:00,
2013-01-03 15:35:00,53.8,31.7,30.33,North,0,2.7,7.2,43,0.00,,,0.00,WUHU216HW,2013-01-03 21:35:00,
2013-01-03 15:40:00,54.4,31.1,30.33,ENE,68,4.3,6.3,41,0.00,,,0.00,WUHU216HW,2013-01-03 21:40:00,
2013-01-03 15:45:00,54.0,31.3,30.33,NNW,338,5.4,6.3,42,0.00,,,0.00,WUHU216HW,2013-01-03 21:45:00,
2013-01-03 15:50:00,53.3,30.7,30.33,NNW,338,4.0,6.3,42,0.00,,,0.00,WUHU216HW,2013-01-03 21:50:00,
2013-01-03 15:55:00,53.6,31.6,30.33,NNE,23,6.9,6.9,43,0.00,,,0.00,WUHU216HW,2013-01-03 21:55:00,
2013-01-03 16:00:00,54.0,31.9,30.34,North,0,2.5,8.1,43,0.00,,,0.00,WUHU216HW,2013-01-03 22:00:00,
2013-01-03 16:05:00,54.4,31.7,30.34,North,0,4.3,8.1,42,0.00,,,0.00,WUHU216HW,2013-01-03 22:05:00,
2013-01-03 16:10:00,54.0,31.9,30.33,NNW,338,1.8,6.3,43,0.00,,,0.00,WUHU216HW,2013-01-03 22:10:00,
2013-01-03 16:15:00,53.6,31.6,30.34,North,0,2.9,6.3,43,0.00,,,0.00,WUHU216HW,2013-01-03 22:15:00,
2013-01-03 16:20:00,53.8,32.3,30.33,NNE,23,1.3,5.1,44,0.00,,,0.00,WUHU216HW,2013-01-03 22:20:00,
2013-01-03 16:25:00,53.6,32.1,30.33,North,0,2.5,5.1,44,0.00,,,0.00,WUHU216HW,2013-01-03 22:25:00,
2013-01-03 16:30:00,53.1,31.1,30.33,North,0,4.7,5.1,43,0.00,,,0.00,WUHU216HW,2013-01-03 22:30:00,
2013-01-03 16:35:00,52.2,30.2,30.34,NNE,23,3.8,4.7,43,0.00,,,0.00,WUHU216HW,2013-01-03 22:35:00,
2013-01-03 16:40:00,51.7,29.8,30.33,North,0,3.6,5.6,43,0.00,,,0.00,WUHU216HW,2013-01-03 22:40:00,
2013-01-03 16:45:00,51.1,29.9,30.34,NNW,338,3.4,5.6,44,0.00,,,0.00,WUHU216HW,2013-01-03 22:45:00,
2013-01-03 16:50:00,50.9,30.2,30.34,NNW,338,1.8,4.7,45,0.00,,,0.00,WUHU216HW,2013-01-03 22:50:00,
2013-01-03 16:55:00,50.9,30.2,30.34,NNW,338,1.1,4.0,45,0.00,,,0.00,WUHU216HW,2013-01-03 22:55:00,
2013-01-03 17:00:00,50.8,30.6,30.34,NW,315,2.9,3.1,46,0.00,,,0.00,WUHU216HW,2013-01-03 23:00:00,
2013-01-03 17:05:00,50.6,30.5,30.34,NW,315,2.0,3.8,46,0.00,,,0.00,WUHU216HW,2013-01-03 23:05:00,
2013-01-03 17:10:00,50.4,30.9,30.34,North,0,1.8,3.8,47,0.00,,,0.00,WUHU216HW,2013-01-03 23:10:00,
2013-01-03 17:15:00,50.0,30.5,30.34,NW,315,1.3,4.3,47,0.00,,,0.00,WUHU216HW,2013-01-03 23:15:00,
2013-01-03 17:20:00,49.7,30.3,30.34,North,0,1.8,4.3,47,0.00,,,0.00,WUHU216HW,2013-01-03 23:20:00,
2013-01-03 17:25:00,49.3,29.9,30.35,NNW,338,1.8,3.4,47,0.00,,,0.00,WUHU216HW,2013-01-03 23:25:00,
2013-01-03 17:30:00,49.1,30.3,30.35,NNW,338,1.6,3.4,48,0.00,,,0.00,WUHU216HW,2013-01-03 23:30:00,
2013-01-03 17:35:00,49.0,30.1,30.35,NW,315,3.1,3.1,48,0.00,,,0.00,WUHU216HW,2013-01-03 23:35:00,
2013-01-03 17:40:00,48.6,30.3,30.34,North,0,2.9,3.4,49,0.00,,,0.00,WUHU216HW,2013-01-03 23:40:00,
2013-01-03 17:45:00,48.2,29.9,30.35,NW,315,2.0,3.4,49,0.00,,,0.00,WUHU216HW,2013-01-03 23:45:00,
2013-01-03 17:50:00,48.1,29.7,30.35,North,0,1.6,3.4,49,0.00,,,0.00,WUHU216HW,2013-01-03 23:50:00,
2013-01-03 17:55:00,48.1,30.2,30.35,NNE,23,1.3,2.9,50,0.00,,,0.00,WUHU216HW,2013-01-03 23:55:00,
2013-01-03 18:00:00,48.1,30.2,30.35,North,0,1.8,2.9,50,0.00,,,0.00,WUHU216HW,2013-01-04 00:00:00,
2013-01-03 18:05:00,47.7,30.0,30.35,North,0,1.8,3.1,50,0.00,,,0.00,WUHU216HW,2013-01-04 00:05:00,
2013-01-03 18:10:00,47.5,30.3,30.35,North,0,0.4,3.1,51,0.00,,,0.00,WUHU216HW,2013-01-04 00:10:00,
2013-01-03 18:15:00,47.5,30.3,30.35,NNE,23,0.7,1.8,51,0.00,,,0.00,WUHU216HW,2013-01-04 00:15:00,
2013-01-03 18:20:00,47.3,30.5,30.36,North,0,0.4,1.8,52,0.00,,,0.00,WUHU216HW,2013-01-04 00:20:00,
2013-01-03 18:25:00,47.3,30.5,30.36,North,0,1.3,2.0,52,0.00,,,0.00,WUHU216HW,2013-01-04 00:25:00,
2013-01-03 18:30:00,47.2,30.3,30.36,North,0,1.3,2.0,52,0.00,,,0.00,WUHU216HW,2013-01-04 00:30:00,
2013-01-03 18:35:00,46.6,30.3,30.37,NNW,338,0.7,2.0,53,0.00,,,0.00,WUHU216HW,2013-01-04 00:35:00,
2013-01-03 18:40:00,46.4,30.2,30.36,NNW,338,0.7,1.6,53,0.00,,,0.00,WUHU216HW,2013-01-04 00:40:00,
2013-01-03 18:45:00,46.4,30.6,30.37,NNW,338,0.4,1.6,54,0.00,,,0.00,WUHU216HW,2013-01-04 00:45:00,
2013-01-03 18:50:00,46.3,30.4,30.37,NNW,338,0.2,0.9,54,0.00,,,0.00,WUHU216HW,2013-01-04 00:50:00,
2013-01-03 18:55:00,46.1,30.2,30.37,NNW,338,0.4,0.9,54,0.00,,,0.00,WUHU216HW,2013-01-04 00:55:00,
2013-01-03 19:00:00,46.1,30.7,30.37,NNW,338,0.0,0.9,55,0.00,,,0.00,WUHU216HW,2013-01-04 01:00:00,
2013-01-03 19:05:00,46.3,30.9,30.36,NNW,338,0.0,0.4,55,0.00,,,0.00,WUHU216HW,2013-01-04 01:05:00,
2013-01-03 19:10:00,46.3,30.9,30.37,NNW,338,0.9,0.9,55,0.00,,,0.00,WUHU216HW,2013-01-04 01:10:00,
2013-01-03 19:15:00,46.1,30.7,30.36,NNW,338,1.1,1.3,55,0.00,,,0.00,WUHU216HW,2013-01-04 01:15:00,
2013-01-03 19:20:00,45.4,30.1,30.37,North,0,1.1,1.8,55,0.00,,,0.00,WUHU216HW,2013-01-04 01:20:00,
2013-01-03 19:25:00,45.0,30.3,30.37,North,0,0.4,1.8,56,0.00,,,0.00,WUHU216HW,2013-01-04 01:25:00,
2013-01-03 19:30:00,45.0,30.3,30.37,NE,45,0.7,1.3,56,0.00,,,0.00,WUHU216HW,2013-01-04 01:30:00,
2013-01-03 19:35:00,45.0,30.7,30.37,NNE,23,0.2,1.3,57,0.00,,,0.00,WUHU216HW,2013-01-04 01:35:00,
2013-01-03 19:40:00,44.6,29.9,30.36,NE,45,1.1,1.3,56,0.00,,,0.00,WUHU216HW,2013-01-04 01:40:00,
2013-01-03 19:45:00,44.3,30.0,30.36,North,0,1.3,2.0,57,0.00,,,0.00,WUHU216HW,2013-01-04 01:45:00,
2013-01-03 19:50:00,44.3,30.0,30.37,NNE,23,1.8,2.0,57,0.00,,,0.00,WUHU216HW,2013-01-04 01:50:00,
2013-01-03 19:55:00,44.3,30.0,30.36,NE,45,1.1,2.5,57,0.00,,,0.00,WUHU216HW,2013-01-04 01:55:00,
2013-01-03 20:00:00,44.3,30.0,30.36,NE,45,1.1,2.5,57,0.00,,,0.00,WUHU216HW,2013-01-04 02:00:00,
2013-01-03 20:05:00,43.7,29.9,30.36,NE,45,1.3,1.6,58,0.00,,,0.00,WUHU216HW,2013-01-04 02:05:00,
2013-01-03 20:10:00,43.2,29.8,30.36,ENE,68,1.1,1.8,59,0.00,,,0.00,WUHU216HW,2013-01-04 02:10:00,
2013-01-03 20:15:00,43.2,29.8,30.37,NE,45,0.9,1.8,59,0.00,,,0.00,WUHU216HW,2013-01-04 02:15:00,
2013-01-03 20:20:00,42.8,30.2,30.37,NE,45,0.4,1.8,61,0.00,,,0.00,WUHU216HW,2013-01-04 02:20:00,
2013-01-03 20:25:00,43.0,30.4,30.37,NE,45,0.0,1.1,61,0.00,,,0.00,WUHU216HW,2013-01-04 02:25:00,
2013-01-03 20:30:00,43.0,30.4,30.37,NNE,23,0.0,0.4,61,0.00,,,0.00,WUHU216HW,2013-01-04 02:30:00,
2013-01-03 20:35:00,43.2,30.6,30.37,NNE,23,0.0,0.4,61,0.00,,,0.00,WUHU216HW,2013-01-04 02:35:00,
2013-01-03 20:40:00,43.4,30.4,30.37,NNW,338,0.4,0.4,60,0.00,,,0.00,WUHU216HW,2013-01-04 02:40:00,
2013-01-03 20:45:00,43.6,30.6,30.37,NNW,338,0.0,0.4,60,0.00,,,0.00,WUHU216HW,2013-01-04 02:45:00,
2013-01-03 20:50:00,43.6,30.6,30.36,North,0,0.2,0.4,60,0.00,,,0.00,WUHU216HW,2013-01-04 02:50:00,
2013-01-03 20:55:00,43.6,30.6,30.36,NNE,23,0.7,0.9,60,0.00,,,0.00,WUHU216HW,2013-01-04 02:55:00,
2013-01-03 21:00:00,43.4,30.4,30.36,NNW,338,1.1,1.8,60,0.00,,,0.00,WUHU216HW,2013-01-04 03:00:00,
2013-01-03 21:05:00,43.0,30.1,30.36,North,0,0.2,1.8,60,0.00,,,0.00,WUHU216HW,2013-01-04 03:05:00,
2013-01-03 21:10:00,42.5,29.5,30.36,East,90,0.0,1.3,60,0.00,,,0.00,WUHU216HW,2013-01-04 03:10:00,
2013-01-03 21:15:00,41.8,29.3,30.36,East,90,0.4,0.9,61,0.00,,,0.00,WUHU216HW,2013-01-04 03:15:00,
2013-01-03 21:20:00,41.4,29.0,30.37,East,90,0.9,2.0,61,0.00,,,0.00,WUHU216HW,2013-01-04 03:20:00,
2013-01-03 21:25:00,41.0,29.0,30.36,WNW,293,2.2,2.7,62,0.00,,,0.00,WUHU216HW,2013-01-04 03:25:00,
2013-01-03 21:30:00,40.7,29.1,30.36,NNW,338,0.0,2.7,63,0.00,,,0.00,WUHU216HW,2013-01-04 03:30:00,
2013-01-03 21:35:00,40.9,29.3,30.36,North,0,0.4,2.2,63,0.00,,,0.00,WUHU216HW,2013-01-04 03:35:00,
2013-01-03 21:40:00,41.2,30.0,30.36,NNW,338,0.4,0.9,64,0.00,,,0.00,WUHU216HW,2013-01-04 03:40:00,
2013-01-03 21:45:00,41.4,30.2,30.37,NW,315,0.4,0.7,64,0.00,,,0.00,WUHU216HW,2013-01-04 03:45:00,
2013-01-03 21:50:00,41.4,30.2,30.37,West,270,1.3,1.6,64,0.00,,,0.00,WUHU216HW,2013-01-04 03:50:00,
2013-01-03 21:55:00,41.0,30.2,30.37,NW,315,1.1,1.6,65,0.00,,,0.00,WUHU216HW,2013-01-04 03:55:00,
2013-01-03 22:00:00,41.0,30.2,30.37,NW,315,0.7,1.6,65,0.00,,,0.00,WUHU216HW,2013-01-04 04:00:00,
2013-01-03 22:05:00,41.0,30.2,30.38,NNW,338,0.0,1.3,65,0.00,,,0.00,WUHU216HW,2013-01-04 04:05:00,
2013-01-03 22:10:00,41.2,30.3,30.38,NW,315,0.0,0.4,65,0.00,,,0.00,WUHU216HW,2013-01-04 04:10:00,
2013-01-03 22:15:00,41.2,30.3,30.38,NW,315,0.7,0.7,65,0.00,,,0.00,WUHU216HW,2013-01-04 04:15:00,
2013-01-03 22:20:00,41.0,30.2,30.38,NNW,338,0.4,0.9,65,0.00,,,0.00,WUHU216HW,2013-01-04 04:20:00,
2013-01-03 22:25:00,41.2,30.3,30.38,NNE,23,0.4,1.1,65,0.00,,,0.00,WUHU216HW,2013-01-04 04:25:00,
2013-01-03 22:30:00,41.0,30.9,30.38,East,90,0.7,1.1,67,0.00,,,0.00,WUHU216HW,2013-01-04 04:30:00,
2013-01-03 22:35:00,41.0,30.9,30.37,East,90,0.4,1.1,67,0.00,,,0.00,WUHU216HW,2013-01-04 04:35:00,
2013-01-03 22:40:00,40.9,30.7,30.37,East,90,0.4,1.1,67,0.00,,,0.00,WUHU216HW,2013-01-04 04:40:00,
2013-01-03 22:45:00,40.9,30.7,30.38,ENE,68,0.0,0.9,67,0.00,,,0.00,WUHU216HW,2013-01-04 04:45:00,
2013-01-03 22:50:00,40.9,30.7,30.38,NE,45,1.3,1.3,67,0.00,,,0.00,WUHU216HW,2013-01-04 04:50:00,
2013-01-03 22:55:00,40.9,30.7,30.37,NE,45,0.9,1.3,67,0.00,,,0.00,WUHU216HW,2013-01-04 04:55:00,
2013-01-03 23:00:00,41.0,30.9,30.37,NNE,23,0.4,1.6,67,0.00,,,0.00,WUHU216HW,2013-01-04 05:00:00,
2013-01-03 23:01:00,41.0,30.9,30.37,North,0,0.4,1.6,67,0.00,,,0.00,WUHU216HW,2013-01-04 05:01:00,
2013-01-03 23:02:00,41.2,31.1,30.37,North,0,0.4,1.6,67,0.00,,,0.00,WUHU216HW,2013-01-04 05:02:00,
2013-01-03 23:07:00,41.2,31.1,30.37,NNW,338,1.3,1.6,67,0.00,,,0.00,WUHU216HW,2013-01-04 05:07:00,
2013-01-03 23:12:00,41.2,31.1,30.37,NNW,338,0.4,1.8,67,0.00,,,0.00,WUHU216HW,2013-01-04 05:12:00,
2013-01-03 23:17:00,41.2,31.1,30.37,NE,45,0.9,1.8,67,0.00,,,0.00,WUHU216HW,2013-01-04 05:17:00,
2013-01-03 23:22:00,41.2,31.1,30.37,North,0,0.7,1.3,67,0.00,,,0.00,WUHU216HW,2013-01-04 05:22:00,
2013-01-03 23:27:00,41.2,31.1,30.37,NNE,23,1.1,1.3,67,0.00,,,0.00,WUHU216HW,2013-01-04 05:27:00,
2013-01-03 23:32:00,41.0,30.9,30.37,North,0,0.4,1.8,67,0.00,,,0.00,WUHU216HW,2013-01-04 05:32:00,
2013-01-03 23:37:00,41.0,30.9,30.37,North,0,1.6,1.8,67,0.00,,,0.00,WUHU216HW,2013-01-04 05:37:00,
2013-01-03 23:42:00,41.0,30.9,30.37,NNW,338,0.4,1.8,67,0.00,,,0.00,WUHU216HW,2013-01-04 05:42:00,
2013-01-03 23:47:00,41.0,30.9,30.37,NNW,338,0.0,1.8,67,0.00,,,0.00,WUHU216HW,2013-01-04 05:47:00,
2013-01-03 23:52:00,41.2,31.1,30.37,NE,45,0.4,1.8,67,0.00,,,0.00,WUHU216HW,2013-01-04 05:52:00,
2013-01-03 23:57:00,41.2,31.1,30.37,ENE,68,0.7,1.8,67,0.00,,,0.00,WUHU216HW,2013-01-04 05:57:00,